Time;durP1;ratioP1;P1;durP2;ratioP2;P2;SDS_P1;SDS_P2;PMS_P1;PMS_P2;Temp;Humidity;BMP_temperature;BMP_pressure;BME280_temperature;BME280_humidity;BME280_pressure;Samples;Min_cycle;Max_cycle;Signal;HPM_P1;HPM_P2
2022/09/07 00:00:51;;;;;;;6.53;2.73;;;17.40;65.10;;;;;;5066659;28;20188;-80
2022/09/07 00:03:19;;;;;;;10.47;3.20;;;17.30;65.10;;;;;;5064861;28;20187;-81
2022/09/07 00:05:49;;;;;;;6.10;2.10;;;17.40;64.80;;;;;;5054850;28;20224;-80
2022/09/07 00:08:19;;;;;;;13.03;3.43;;;17.30;64.90;;;;;;5061548;28;20266;-79
2022/09/07 00:10:58;;;;;;;11.43;5.50;;;17.40;64.90;;;;;;5054720;28;20203;-83
2022/09/07 00:13:28;;;;;;;6.70;2.87;;;17.80;63.90;;;;;;5054004;28;20714;-80
2022/09/07 00:15:56;;;;;;;5.27;1.83;;;18.00;61.90;;;;;;5069604;28;20590;-80
2022/09/07 00:18:24;;;;;;;4.33;1.33;;;17.80;61.30;;;;;;5054605;28;20567;-81
2022/09/07 00:21:03;;;;;;;7.03;1.63;;;18.00;60.70;;;;;;5054205;28;20663;-82
2022/09/07 00:23:32;;;;;;;2.60;1.23;;;18.20;59.60;;;;;;5052761;28;20233;-79
2022/09/07 00:26:05;;;;;;;1.37;1.00;;;18.20;56.40;;;;;;5064740;28;20270;-79
2022/09/07 00:28:32;;;;;;;5.37;1.53;;;17.90;59.90;;;;;;5073190;28;20172;-79
2022/09/07 00:31:00;;;;;;;4.00;1.13;;;17.70;60.50;;;;;;5054299;28;20252;-79
2022/09/07 00:33:28;;;;;;;3.77;1.40;;;17.90;59.10;;;;;;5067814;28;20639;-77
2022/09/07 00:35:58;;;;;;;7.07;1.50;;;18.20;59.90;;;;;;5057192;28;20171;-80
2022/09/07 00:38:25;;;;;;;4.30;1.73;;;18.20;59.60;;;;;;5056207;28;20175;-77
2022/09/07 00:40:53;;;;;;;5.20;1.60;;;18.20;59.00;;;;;;5054551;28;20215;-79
2022/09/07 00:43:35;;;;;;;4.53;1.37;;;18.10;59.60;;;;;;5054772;28;20194;-78
2022/09/07 00:46:04;;;;;;;7.47;1.37;;;18.20;58.60;;;;;;5066411;28;20595;-79
2022/09/07 00:48:37;;;;;;;5.57;1.20;;;18.00;58.50;;;;;;5053749;28;20649;-79
2022/09/07 00:51:10;;;;;;;4.83;1.53;;;17.80;59.30;;;;;;5053621;28;20293;-80
2022/09/07 00:53:46;;;;;;;6.53;1.47;;;18.30;58.50;;;;;;5052794;28;20631;-78
2022/09/07 00:56:13;;;;;;;6.23;2.40;;;18.50;58.00;;;;;;5067053;28;20572;-79
2022/09/07 00:58:43;;;;;;;3.17;1.40;;;18.30;57.40;;;;;;5053879;28;20238;-82
2022/09/07 01:01:11;;;;;;;4.63;1.33;;;18.40;57.20;;;;;;5054600;28;20225;-81
2022/09/07 01:03:45;;;;;;;4.20;1.30;;;18.50;57.80;;;;;;5063389;28;20171;-77
2022/09/07 01:06:24;;;;;;;5.30;1.90;;;18.60;56.40;;;;;;5056460;28;20649;-81
2022/09/07 01:08:58;;;;;;;4.60;1.43;;;18.80;57.00;;;;;;5069154;28;20186;-81
2022/09/07 01:11:26;;;;;;;3.53;1.30;;;18.70;56.60;;;;;;5073238;28;20600;-80
2022/09/07 01:13:56;;;;;;;7.03;1.40;;;18.60;57.90;;;;;;5070206;28;20171;-80
2022/09/07 01:16:36;;;;;;;3.47;1.40;;;18.90;55.80;;;;;;5062898;28;20259;-82
2022/09/07 01:19:12;;;;;;;4.03;1.17;;;18.90;55.60;;;;;;5056970;28;20682;-80
2022/09/07 01:22:30;;;;;;;2.90;1.20;;;19.20;55.00;;;;;;5053436;28;20206;-85
2022/09/07 01:25:19;;;;;;;5.60;1.40;;;19.30;55.50;;;;;;5054022;28;20251;-84
2022/09/07 01:28:11;;;;;;;6.67;1.57;;;19.60;54.40;;;;;;5052914;28;20198;-80
2022/09/07 01:30:46;;;;;;;4.43;1.60;;;19.80;54.00;;;;;;5053490;28;20554;-78
2022/09/07 01:33:37;;;;;;;8.00;3.87;;;20.00;53.00;;;;;;5053143;28;20312;-81
2022/09/07 01:36:32;;;;;;;4.13;1.57;;;19.80;54.60;;;;;;5052881;28;20195;-80
2022/09/07 01:39:02;;;;;;;4.43;1.67;;;19.80;53.10;;;;;;5064567;28;20270;-82
2022/09/07 01:41:58;;;;;;;3.77;1.30;;;19.80;54.00;;;;;;5062824;28;20206;-82
2022/09/07 01:44:41;;;;;;;6.10;1.70;;;19.70;54.80;;;;;;5058307;28;20183;-79
2022/09/07 01:47:37;;;;;;;5.80;1.67;;;19.50;55.30;;;;;;5053569;28;20194;-78
2022/09/07 01:50:10;;;;;;;7.20;1.37;;;19.80;55.00;;;;;;5059093;28;20234;-81
2022/09/07 01:52:58;;;;;;;4.83;1.83;;;19.70;54.80;;;;;;5071344;28;20205;-77
2022/09/07 01:55:49;;;;;;;3.47;1.50;;;19.80;53.00;;;;;;5076616;28;20170;-78
2022/09/07 01:58:28;;;;;;;8.27;1.73;;;19.90;54.40;;;;;;5057564;28;20236;-79
2022/09/07 02:01:10;;;;;;;6.63;1.60;;;20.00;53.90;;;;;;5067630;28;20214;-79
2022/09/07 02:03:58;;;;;;;5.73;1.47;;;19.80;54.80;;;;;;5073088;28;20192;-82
2022/09/07 02:06:40;;;;;;;5.17;1.90;;;20.20;53.20;;;;;;5061135;28;20523;-80
2022/09/07 02:09:40;;;;;;;5.63;1.80;;;20.20;54.10;;;;;;5063733;28;20664;-77
2022/09/07 02:12:21;;;;;;;6.80;1.73;;;20.40;54.20;;;;;;5055716;28;20607;-75
2022/09/07 02:14:58;;;;;;;5.43;1.70;;;20.50;53.50;;;;;;5054196;28;20312;-77
2022/09/07 02:17:40;;;;;;;6.97;1.47;;;20.60;53.50;;;;;;5055932;28;20274;-76
2022/09/07 02:20:19;;;;;;;3.67;1.27;;;20.40;53.90;;;;;;5052330;28;20180;-79
2022/09/07 02:22:52;;;;;;;5.10;1.50;;;20.80;52.00;;;;;;5055055;28;20172;-77
2022/09/07 02:25:32;;;;;;;4.50;1.50;;;21.30;51.20;;;;;;5072831;28;20175;-76
2022/09/07 02:28:08;;;;;;;3.70;1.40;;;21.30;51.00;;;;;;5065233;28;20188;-78
2022/09/07 02:30:35;;;;;;;3.03;1.60;;;20.90;51.40;;;;;;5065866;28;20218;-75
2022/09/07 02:33:03;;;;;;;5.77;1.47;;;20.40;53.30;;;;;;5052317;28;20306;-82
2022/09/07 02:35:32;;;;;;;3.77;1.50;;;20.80;52.80;;;;;;5055229;28;20652;-76
2022/09/07 02:38:03;;;;;;;5.10;1.80;;;21.00;53.10;;;;;;5064082;28;20176;-78
2022/09/07 02:40:31;;;;;;;5.70;1.23;;;20.60;53.00;;;;;;5059284;28;20204;-82
2022/09/07 02:43:03;;;;;;;1.43;0.90;;;21.30;51.80;;;;;;5058806;28;20188;-79
2022/09/07 02:46:03;;;;;;;3.80;1.07;;;21.60;50.00;;;;;;5061875;28;20210;-82
2022/09/07 02:48:51;;;;;;;4.33;1.27;;;21.90;49.20;;;;;;5057307;28;20180;-81
2022/09/07 02:51:31;;;;;;;2.60;1.20;;;21.80;48.00;;;;;;5066814;28;20223;-80
2022/09/07 02:54:34;;;;;;;3.23;1.07;;;21.40;47.70;;;;;;5070138;28;20226;-87
2022/09/07 02:57:26;;;;;;;2.87;1.10;;;21.60;48.60;;;;;;5064434;28;20190;-79
2022/09/07 03:00:08;;;;;;;4.70;1.20;;;21.60;47.60;;;;;;5061342;28;20175;-80
2022/09/07 03:02:38;;;;;;;1.80;0.90;;;21.80;49.40;;;;;;5058115;28;20266;-80
2022/09/07 03:05:12;;;;;;;3.27;0.97;;;21.80;49.80;;;;;;5064750;28;20313;-80
2022/09/07 03:07:48;;;;;;;8.30;1.50;;;21.70;49.70;;;;;;5060258;28;20266;-82
2022/09/07 03:10:17;;;;;;;2.80;1.00;;;22.00;48.50;;;;;;5071817;28;20198;-76
2022/09/07 03:12:49;;;;;;;6.30;1.10;;;22.10;48.40;;;;;;5072096;28;20203;-84
2022/09/07 03:15:27;;;;;;;1.43;0.77;;;22.20;47.90;;;;;;5081340;28;20176;-75
2022/09/07 03:17:55;;;;;;;6.17;1.53;;;22.20;46.10;;;;;;5075917;28;20183;-81
2022/09/07 03:20:23;;;;;;;4.20;1.30;;;21.80;47.00;;;;;;5073647;28;20595;-81
2022/09/07 03:22:51;;;;;;;3.47;1.80;;;21.60;47.70;;;;;;5071823;28;20187;-78
2022/09/07 03:25:21;;;;;;;2.80;1.90;;;21.70;47.80;;;;;;5071756;28;20183;-85
2022/09/07 03:27:49;;;;;;;4.57;1.37;;;21.80;47.40;;;;;;5076577;28;20197;-81
2022/09/07 03:30:16;;;;;;;5.63;1.00;;;22.40;47.60;;;;;;5080306;28;20281;-83
2022/09/07 03:32:43;;;;;;;2.20;0.80;;;22.70;47.00;;;;;;5074303;28;20179;-77
2022/09/07 03:35:12;;;;;;;3.87;0.70;;;22.90;45.80;;;;;;5068225;28;20348;-77
2022/09/07 03:37:39;;;;;;;2.20;0.80;;;22.30;45.20;;;;;;5070021;28;20619;-86
2022/09/07 03:40:09;;;;;;;1.70;0.70;;;21.70;47.50;;;;;;5071044;28;20252;-87
2022/09/07 03:42:37;;;;;;;8.50;4.13;;;21.40;48.20;;;;;;5065701;28;20227;-82
2022/09/07 03:45:06;;;;;;;8.63;3.00;;;21.50;48.30;;;;;;5072737;28;20542;-86
2022/09/07 03:47:40;;;;;;;4.77;1.20;;;21.60;47.30;;;;;;5062220;28;20922;-79
2022/09/07 03:50:09;;;;;;;4.60;0.97;;;22.00;47.20;;;;;;5068526;28;20236;-88
2022/09/07 03:52:37;;;;;;;3.80;1.13;;;22.00;47.80;;;;;;5069917;28;20688;-84
2022/09/07 03:55:05;;;;;;;2.87;0.90;;;22.30;47.00;;;;;;5072644;28;20190;-82
2022/09/07 03:57:32;;;;;;;2.23;0.70;;;21.60;48.90;;;;;;5071307;28;20174;-81
2022/09/07 04:00:00;;;;;;;2.10;0.70;;;21.90;47.60;;;;;;5063517;28;20244;-76
2022/09/07 04:02:28;;;;;;;1.93;1.00;;;22.00;46.90;;;;;;5070223;28;20742;-82
2022/09/07 04:04:55;;;;;;;3.13;0.80;;;22.30;45.90;;;;;;5064443;28;20205;-88
2022/09/07 04:07:22;;;;;;;3.27;0.80;;;22.50;46.60;;;;;;5066805;28;20191;-78
2022/09/07 04:09:50;;;;;;;3.13;0.97;;;22.40;45.70;;;;;;5068564;28;20217;-75
2022/09/07 04:12:17;;;;;;;1.70;0.60;;;22.30;46.40;;;;;;5073674;28;20183;-84
2022/09/07 04:14:45;;;;;;;3.63;0.80;;;22.80;45.80;;;;;;5071469;28;21173;-80
2022/09/07 04:17:21;;;;;;;6.70;2.13;;;22.50;46.50;;;;;;5074402;28;20222;-81
2022/09/07 04:19:48;;;;;;;4.60;2.63;;;22.30;45.90;;;;;;5052857;28;20188;-78
2022/09/07 04:22:16;;;;;;;4.13;3.00;;;23.00;45.80;;;;;;5055014;28;20186;-79
2022/09/07 04:24:43;;;;;;;2.93;0.70;;;22.70;46.70;;;;;;5058092;28;20248;-78
2022/09/07 04:27:10;;;;;;;7.40;5.47;;;22.20;45.40;;;;;;5072519;28;20934;-77
2022/09/07 04:29:38;;;;;;;18.00;15.10;;;22.30;46.50;;;;;;5071230;28;20194;-80
2022/09/07 04:32:05;;;;;;;2.97;0.83;;;22.60;45.90;;;;;;5078313;28;20300;-79
2022/09/07 04:34:33;;;;;;;1.60;0.60;;;22.40;46.10;;;;;;5081129;28;20176;-82
2022/09/07 04:37:00;;;;;;;2.20;0.77;;;22.40;45.60;;;;;;5062041;28;20180;-83
2022/09/07 04:39:27;;;;;;;3.83;0.77;;;22.20;46.30;;;;;;5055520;28;20175;-80
2022/09/07 04:41:55;;;;;;;4.93;2.27;;;22.60;44.40;;;;;;5060606;28;20234;-80
2022/09/07 04:44:23;;;;;;;2.37;1.20;;;22.80;44.40;;;;;;5067404;28;20654;-78
2022/09/07 04:46:50;;;;;;;3.83;1.67;;;22.90;43.40;;;;;;5057796;28;20188;-81
2022/09/07 04:49:19;;;;;;;2.93;0.70;;;22.80;44.50;;;;;;5054409;28;20180;-85
2022/09/07 04:51:46;;;;;;;3.60;1.33;;;22.50;45.50;;;;;;5053650;28;20199;-78
2022/09/07 04:54:13;;;;;;;5.63;2.30;;;22.50;46.50;;;;;;5053135;28;20188;-84
2022/09/07 04:56:41;;;;;;;4.60;2.30;;;22.30;48.10;;;;;;5057353;28;20250;-79
2022/09/07 04:59:08;;;;;;;2.07;0.70;;;23.00;45.90;;;;;;5067085;28;20203;-82
2022/09/07 05:01:36;;;;;;;4.97;1.70;;;22.60;46.70;;;;;;5058928;28;20174;-84
2022/09/07 05:04:04;;;;;;;3.33;1.20;;;22.50;47.60;;;;;;5064346;28;20175;-81
2022/09/07 05:06:31;;;;;;;1.70;0.70;;;23.00;46.60;;;;;;5060193;28;20184;-81
2022/09/07 05:08:59;;;;;;;2.93;0.60;;;22.70;46.90;;;;;;5056371;28;20631;-79
2022/09/07 05:11:28;;;;;;;1.00;0.60;;;22.80;47.10;;;;;;5068728;28;20207;-84
2022/09/07 05:14:00;;;;;;;4.33;1.20;;;22.80;47.70;;;;;;5053473;28;20171;-87
2022/09/07 05:16:29;;;;;;;2.47;0.80;;;22.70;46.60;;;;;;5054274;28;20258;-81
2022/09/07 05:19:02;;;;;;;3.27;0.60;;;22.60;47.40;;;;;;5076000;28;20200;-84
2022/09/07 05:21:32;;;;;;;4.07;0.80;;;22.80;48.20;;;;;;5081357;28;20201;-83
2022/09/07 05:24:00;;;;;;;1.37;1.00;;;22.90;47.00;;;;;;5072560;28;20180;-78
2022/09/07 05:26:31;;;;;;;6.97;1.00;;;23.20;46.60;;;;;;5069721;28;20744;-86
2022/09/07 05:29:04;;;;;;;2.20;0.90;;;23.00;47.00;;;;;;5069796;28;20176;-81
2022/09/07 05:31:32;;;;;;;4.07;0.87;;;23.40;46.60;;;;;;5069013;28;20587;-84
2022/09/07 05:34:00;;;;;;;2.27;0.77;;;22.90;47.70;;;;;;5064339;28;20179;-80
2022/09/07 05:36:28;;;;;;;2.37;0.90;;;22.80;47.30;;;;;;5068358;28;20183;-81
2022/09/07 05:38:57;;;;;;;1.97;0.67;;;22.20;49.50;;;;;;5060626;28;20185;-81
2022/09/07 05:41:26;;;;;;;2.97;1.20;;;22.30;48.80;;;;;;5053284;28;20378;-81
2022/09/07 05:43:55;;;;;;;2.37;0.70;;;22.70;47.60;;;;;;5068708;28;20180;-84
2022/09/07 05:46:23;;;;;;;5.20;0.80;;;22.80;47.50;;;;;;5060440;28;20278;-81
2022/09/07 05:48:50;;;;;;;2.53;0.90;;;22.30;48.30;;;;;;5068783;28;20199;-85
2022/09/07 05:51:17;;;;;;;3.93;0.90;;;22.80;48.60;;;;;;5053265;28;20237;-82
2022/09/07 05:53:47;;;;;;;2.83;0.70;;;22.60;48.50;;;;;;5072511;28;20644;-82
2022/09/07 05:56:15;;;;;;;4.20;0.90;;;22.40;48.70;;;;;;5068651;28;20211;-85
2022/09/07 05:58:47;;;;;;;3.13;0.80;;;22.30;47.80;;;;;;5052896;28;20242;-88
2022/09/07 06:01:14;;;;;;;3.37;0.97;;;23.00;46.30;;;;;;5062963;28;20184;-82
2022/09/07 06:03:43;;;;;;;3.73;0.80;;;23.40;46.30;;;;;;5085593;28;20179;-84
2022/09/07 06:06:13;;;;;;;4.63;0.90;;;23.10;47.00;;;;;;5065768;28;20176;-78
2022/09/07 06:08:48;;;;;;;5.07;0.80;;;22.70;47.60;;;;;;5064801;28;20610;-88
2022/09/07 06:11:18;;;;;;;4.63;1.07;;;22.20;49.30;;;;;;5086863;28;20201;-85
2022/09/07 06:13:46;;;;;;;5.23;1.07;;;23.00;47.20;;;;;;5065190;28;20183;-79
2022/09/07 06:16:15;;;;;;;3.23;0.90;;;23.10;46.30;;;;;;5061042;28;20172;-79
2022/09/07 06:18:44;;;;;;;3.07;1.00;;;22.20;47.90;;;;;;5081040;28;20702;-86
2022/09/07 06:21:14;;;;;;;5.77;1.00;;;21.50;49.70;;;;;;5072772;28;20187;-84
2022/09/07 06:23:43;;;;;;;1.50;0.90;;;21.90;49.20;;;;;;5061617;28;20282;-83
2022/09/07 06:26:10;;;;;;;2.27;0.83;;;22.10;48.70;;;;;;5091557;28;20204;-86
2022/09/07 06:28:40;;;;;;;3.50;0.90;;;22.30;48.70;;;;;;5080821;28;20550;-87
2022/09/07 06:31:11;;;;;;;4.23;1.60;;;22.00;49.00;;;;;;5075989;28;20190;-83
2022/09/07 06:33:40;;;;;;;5.33;2.00;;;21.60;50.10;;;;;;5082300;28;20225;-76
2022/09/07 06:36:14;;;;;;;4.20;1.20;;;21.80;49.70;;;;;;5053039;28;20202;-78
2022/09/07 06:38:42;;;;;;;3.40;0.80;;;21.10;51.30;;;;;;5071216;28;20186;-79
2022/09/07 06:41:22;;;;;;;3.53;0.90;;;20.40;53.40;;;;;;5069698;28;20215;-83
2022/09/07 06:43:50;;;;;;;2.37;0.90;;;19.90;55.10;;;;;;5056995;28;20183;-82
2022/09/07 06:46:17;;;;;;;6.07;1.23;;;20.10;54.20;;;;;;5066756;28;20179;-83
2022/09/07 06:48:45;;;;;;;3.20;1.50;;;19.90;55.10;;;;;;5058433;28;20191;-81
2022/09/07 06:51:18;;;;;;;5.37;1.00;;;19.60;56.30;;;;;;5056324;28;20243;-83
2022/09/07 06:53:47;;;;;;;4.83;1.30;;;19.70;56.50;;;;;;5066090;28;20179;-80
2022/09/07 06:56:18;;;;;;;8.67;1.47;;;19.70;56.10;;;;;;5056603;28;20203;-79
2022/09/07 06:58:46;;;;;;;6.70;1.00;;;19.70;56.20;;;;;;5056332;28;20172;-84
2022/09/07 07:01:21;;;;;;;2.17;1.37;;;19.40;57.50;;;;;;5056001;28;20183;-80
2022/09/07 07:03:48;;;;;;;2.20;0.80;;;18.80;59.20;;;;;;5056067;28;20176;-80
2022/09/07 07:06:16;;;;;;;2.60;1.03;;;18.80;59.70;;;;;;5056276;28;20186;-83
2022/09/07 07:08:44;;;;;;;2.10;1.00;;;19.10;58.60;;;;;;5067771;28;20515;-78
2022/09/07 07:11:14;;;;;;;4.67;1.43;;;19.10;58.70;;;;;;5059932;28;20216;-81
2022/09/07 07:13:44;;;;;;;5.13;1.10;;;18.40;61.10;;;;;;5056098;28;20187;-81
2022/09/07 07:16:13;;;;;;;3.83;2.10;;;17.80;62.80;;;;;;5056149;28;20183;-80
2022/09/07 07:18:42;;;;;;;3.60;1.20;;;17.50;64.10;;;;;;5056076;28;20224;-85
2022/09/07 07:21:12;;;;;;;4.17;0.90;;;17.30;64.90;;;;;;5056355;28;20186;-84
2022/09/07 07:23:40;;;;;;;4.13;1.33;;;17.30;65.30;;;;;;5055979;28;20180;-87
2022/09/07 07:26:13;;;;;;;3.03;1.30;;;17.10;66.10;;;;;;5055741;28;20179;-85
2022/09/07 07:28:48;;;;;;;6.60;1.30;;;17.00;66.50;;;;;;5056469;28;20187;-81
2022/09/07 07:31:18;;;;;;;2.23;1.30;;;17.00;66.70;;;;;;5055843;28;20608;-80
2022/09/07 07:33:47;;;;;;;2.77;1.33;;;16.80;66.90;;;;;;5056227;28;20265;-84
2022/09/07 07:36:17;;;;;;;4.17;1.00;;;16.80;67.50;;;;;;5074055;28;20182;-87
2022/09/07 07:38:46;;;;;;;5.10;1.50;;;16.80;67.60;;;;;;5061724;28;20186;-86
2022/09/07 07:41:16;;;;;;;7.33;1.30;;;16.70;68.00;;;;;;5070948;28;20230;-85
2022/09/07 07:43:44;;;;;;;7.03;1.30;;;16.70;68.10;;;;;;5061306;28;20178;-81
2022/09/07 07:46:16;;;;;;;5.27;1.10;;;16.70;68.30;;;;;;5067791;28;20185;-83
2022/09/07 07:48:47;;;;;;;4.17;1.17;;;16.60;68.70;;;;;;5072363;28;20304;-77
2022/09/07 07:51:15;;;;;;;3.90;1.20;;;16.60;68.40;;;;;;5066178;28;20211;-85
2022/09/07 07:53:43;;;;;;;4.57;1.23;;;16.50;68.80;;;;;;5065598;28;20180;-86
2022/09/07 07:56:12;;;;;;;3.57;1.30;;;16.50;69.10;;;;;;5074651;28;20208;-83
2022/09/07 07:58:43;;;;;;;5.53;1.23;;;16.50;69.00;;;;;;5063665;28;20217;-86
2022/09/07 08:01:13;;;;;;;1.60;0.97;;;16.50;69.10;;;;;;5055819;28;20623;-82
2022/09/07 08:03:45;;;;;;;3.13;1.00;;;16.40;68.70;;;;;;5067966;28;20192;-83
2022/09/07 08:06:18;;;;;;;3.07;1.13;;;16.40;68.90;;;;;;5073663;28;20606;-82
2022/09/07 08:08:46;;;;;;;3.50;1.20;;;16.40;68.60;;;;;;5066291;28;20196;-82
2022/09/07 08:11:17;;;;;;;2.20;1.10;;;16.40;68.80;;;;;;5066752;28;20219;-81
2022/09/07 08:13:46;;;;;;;5.53;1.67;;;16.50;69.00;;;;;;5055508;28;20190;-81
2022/09/07 08:16:14;;;;;;;5.50;1.23;;;16.40;68.70;;;;;;5054607;28;20186;-80
2022/09/07 08:18:42;;;;;;;1.83;1.00;;;16.30;68.60;;;;;;5055835;28;20236;-77
2022/09/07 08:21:15;;;;;;;3.87;0.80;;;16.30;68.90;;;;;;5054309;28;20180;-76
2022/09/07 08:23:42;;;;;;;2.83;1.03;;;16.30;69.30;;;;;;5063904;28;20181;-83
2022/09/07 08:26:10;;;;;;;4.07;1.20;;;16.30;69.50;;;;;;5054371;28;20191;-75
2022/09/07 08:28:40;;;;;;;2.57;1.07;;;16.30;69.80;;;;;;5079563;28;20211;-75
2022/09/07 08:31:10;;;;;;;2.87;1.30;;;16.40;70.00;;;;;;5061953;28;20229;-77
2022/09/07 08:33:38;;;;;;;4.10;1.00;;;16.40;70.20;;;;;;5055105;28;20186;-82
2022/09/07 08:36:18;;;;;;;5.47;1.47;;;16.40;70.00;;;;;;5058788;28;20222;-83
2022/09/07 08:38:46;;;;;;;4.03;1.30;;;16.30;70.10;;;;;;5058733;28;20181;-75
2022/09/07 08:41:56;;;;;;;3.87;1.23;;;16.30;70.00;;;;;;5053763;28;20238;-82
2022/09/07 08:44:26;;;;;;;6.60;1.20;;;16.30;69.90;;;;;;5045811;28;20190;-80
2022/09/07 08:46:59;;;;;;;4.57;1.47;;;16.30;69.80;;;;;;5054321;28;20214;-81
2022/09/07 08:49:51;;;;;;;5.43;1.37;;;16.30;70.10;;;;;;5069597;28;20691;-81
2022/09/07 08:53:07;;;;;;;5.80;1.20;;;16.30;70.00;;;;;;5053930;28;20220;-78
2022/09/07 08:55:59;;;;;;;3.80;1.10;;;16.30;70.10;;;;;;5040672;28;20267;-81
2022/09/07 08:58:36;;;;;;;6.70;1.20;;;16.30;70.50;;;;;;5056196;28;20244;-77
2022/09/07 09:01:12;;;;;;;3.47;1.00;;;16.30;70.50;;;;;;5060795;28;20650;-82
2022/09/07 09:03:40;;;;;;;6.33;1.33;;;16.20;70.60;;;;;;5059879;28;20179;-77
2022/09/07 09:06:21;;;;;;;3.50;1.60;;;16.20;70.60;;;;;;5053224;28;20184;-81
2022/09/07 09:09:25;;;;;;;4.17;1.30;;;16.20;70.80;;;;;;5067505;28;20235;-82
2022/09/07 09:12:01;;;;;;;2.97;1.00;;;16.20;70.90;;;;;;5068677;28;20220;-81
2022/09/07 09:14:53;;;;;;;3.83;1.17;;;16.20;70.90;;;;;;5066678;28;20198;-77
2022/09/07 09:17:44;;;;;;;4.03;1.03;;;16.20;71.10;;;;;;5053991;28;20182;-77
2022/09/07 09:20:33;;;;;;;4.47;1.40;;;16.10;71.40;;;;;;5054048;28;20210;-77
2022/09/07 09:23:12;;;;;;;5.20;1.40;;;16.00;71.30;;;;;;5052220;28;20213;-78
2022/09/07 09:25:46;;;;;;;3.87;1.13;;;16.10;71.40;;;;;;5053623;28;20548;-83
2022/09/07 09:28:14;;;;;;;6.67;1.50;;;16.00;71.70;;;;;;5057054;28;20584;-82
2022/09/07 09:30:42;;;;;;;4.17;1.60;;;16.00;71.90;;;;;;5065033;28;20252;-80
2022/09/07 09:33:22;;;;;;;5.93;1.50;;;16.00;71.90;;;;;;5053555;28;20179;-76
2022/09/07 09:35:52;;;;;;;3.73;1.37;;;16.00;72.10;;;;;;5053575;28;20694;-76
2022/09/07 09:38:28;;;;;;;5.43;1.87;;;15.90;72.00;;;;;;5057867;28;20196;-80
2022/09/07 09:40:58;;;;;;;2.77;1.30;;;16.00;72.10;;;;;;5068650;28;20222;-78
2022/09/07 09:43:46;;;;;;;4.27;1.50;;;15.90;72.10;;;;;;5071343;28;20179;-81
2022/09/07 09:46:35;;;;;;;6.80;1.30;;;15.90;72.40;;;;;;5070975;28;20592;-81
2022/09/07 09:49:17;;;;;;;7.23;1.97;;;15.90;73.10;;;;;;5061300;28;20602;-82
2022/09/07 09:51:53;;;;;;;10.37;1.53;;;15.90;73.30;;;;;;5081174;28;20212;-78
2022/09/07 09:54:31;;;;;;;8.77;1.80;;;15.90;73.50;;;;;;5074677;28;20166;-81
2022/09/07 09:57:00;;;;;;;4.60;1.50;;;15.90;73.60;;;;;;5084537;28;20691;-82
2022/09/07 09:59:32;;;;;;;3.63;1.37;;;15.90;73.60;;;;;;5076954;28;20164;-82
2022/09/07 10:02:16;;;;;;;3.53;1.37;;;15.90;73.70;;;;;;5075907;28;20177;-82
2022/09/07 10:04:43;;;;;;;6.13;1.50;;;15.90;73.70;;;;;;5053171;28;20196;-77
2022/09/07 10:07:26;;;;;;;6.57;1.50;;;15.90;73.20;;;;;;5058660;28;20232;-83
2022/09/07 10:09:55;;;;;;;6.17;1.30;;;16.00;72.70;;;;;;5051677;28;20187;-81
2022/09/07 10:12:37;;;;;;;4.60;1.20;;;16.00;72.30;;;;;;5057668;28;20691;-80
2022/09/07 10:15:23;;;;;;;3.53;1.50;;;16.00;72.30;;;;;;5061984;28;20184;-80
2022/09/07 10:17:51;;;;;;;4.73;1.63;;;16.00;72.20;;;;;;5056707;28;20185;-80
2022/09/07 10:20:18;;;;;;;5.97;1.47;;;16.00;72.40;;;;;;5068988;28;20169;-78
2022/09/07 10:22:52;;;;;;;3.97;1.60;;;16.00;72.00;;;;;;5067662;28;20710;-80
2022/09/07 10:25:32;;;;;;;3.53;1.43;;;16.00;72.00;;;;;;5057297;28;20183;-80
2022/09/07 10:28:12;;;;;;;4.63;1.40;;;16.00;72.00;;;;;;5060109;28;20180;-82
2022/09/07 10:31:05;;;;;;;5.23;1.10;;;16.00;72.40;;;;;;5056608;28;20196;-81
2022/09/07 10:33:52;;;;;;;5.10;1.30;;;15.90;72.60;;;;;;5060515;28;20185;-80
2022/09/07 10:36:40;;;;;;;4.30;1.40;;;15.90;72.70;;;;;;5059527;28;20647;-80
2022/09/07 10:39:23;;;;;;;4.70;1.43;;;15.90;73.10;;;;;;5062322;28;20649;-82
2022/09/07 10:42:30;;;;;;;13.27;1.43;;;15.90;73.30;;;;;;5065542;28;20224;-84
2022/09/07 10:45:20;;;;;;;2.27;0.93;;;15.90;73.80;;;;;;5059375;28;20189;-82
2022/09/07 10:48:11;;;;;;;6.93;1.57;;;15.90;73.90;;;;;;5053749;28;20184;-79
2022/09/07 10:50:55;;;;;;;6.47;1.67;;;15.90;73.90;;;;;;5057917;28;20214;-81
2022/09/07 10:53:32;;;;;;;4.43;1.00;;;15.90;73.70;;;;;;5055097;28;20168;-81
2022/09/07 10:56:21;;;;;;;5.80;1.47;;;16.00;73.80;;;;;;5063718;28;20202;-81
2022/09/07 10:59:09;;;;;;;6.33;1.93;;;15.90;73.60;;;;;;5060240;28;20176;-78
2022/09/07 11:01:46;;;;;;;3.83;1.30;;;16.00;73.40;;;;;;5063859;28;20187;-81
2022/09/07 11:04:36;;;;;;;6.17;1.37;;;16.10;73.40;;;;;;5059304;28;20182;-80
2022/09/07 11:07:15;;;;;;;5.20;1.20;;;16.00;73.20;;;;;;5063631;28;20185;-80
2022/09/07 11:10:37;;;;;;;4.20;1.10;;;16.00;73.20;;;;;;5061493;28;20643;-77
2022/09/07 11:13:07;;;;;;;7.83;1.23;;;16.00;72.60;;;;;;5059675;28;20200;-79
2022/09/07 11:15:48;;;;;;;7.83;0.97;;;16.10;72.20;;;;;;5075256;28;20179;-83
2022/09/07 11:18:29;;;;;;;2.83;1.10;;;16.10;72.30;;;;;;5061735;28;20189;-80
2022/09/07 11:21:00;;;;;;;4.67;1.13;;;16.10;72.50;;;;;;5056884;28;20207;-82
2022/09/07 11:23:55;;;;;;;4.67;1.40;;;16.10;72.70;;;;;;5055484;28;20175;-78
2022/09/07 11:26:39;;;;;;;4.20;1.03;;;16.00;72.70;;;;;;5053215;28;20238;-80
2022/09/07 11:29:21;;;;;;;9.67;2.20;;;16.10;72.70;;;;;;5081823;28;20178;-82
2022/09/07 11:31:51;;;;;;;2.10;1.07;;;16.10;72.70;;;;;;5055583;28;20213;-82
2022/09/07 11:34:44;;;;;;;3.60;0.90;;;16.00;72.90;;;;;;5056116;28;20820;-79
2022/09/07 11:37:40;;;;;;;8.90;1.43;;;16.10;72.90;;;;;;5065902;28;20205;-81
2022/09/07 11:40:21;;;;;;;5.60;1.30;;;16.10;73.10;;;;;;5067161;28;20194;-80
2022/09/07 11:43:14;;;;;;;4.30;1.30;;;16.10;72.90;;;;;;5075344;28;20203;-81
2022/09/07 11:45:53;;;;;;;8.77;1.50;;;16.10;72.90;;;;;;5047542;28;20578;-80
2022/09/07 11:48:30;;;;;;;3.47;1.30;;;16.10;72.80;;;;;;5055655;28;20180;-82
2022/09/07 11:51:38;;;;;;;8.57;1.60;;;16.10;72.80;;;;;;5055742;28;20200;-81
2022/09/07 11:54:21;;;;;;;6.37;1.20;;;16.10;72.80;;;;;;5055012;28;20210;-80
2022/09/07 11:56:56;;;;;;;6.17;1.50;;;16.10;72.60;;;;;;5055960;28;20194;-79
2022/09/07 11:59:53;;;;;;;5.33;1.23;;;16.10;72.80;;;;;;5055342;28;20623;-78
2022/09/07 12:03:01;;;;;;;4.93;1.40;;;16.10;72.50;;;;;;5055684;28;20189;-80
2022/09/07 12:05:55;;;;;;;7.37;1.43;;;16.10;72.60;;;;;;5049126;28;20192;-80
2022/09/07 12:08:47;;;;;;;8.93;1.57;;;16.10;73.10;;;;;;5064442;28;20184;-80
2022/09/07 12:11:40;;;;;;;6.47;1.30;;;16.00;73.20;;;;;;5073615;28;20232;-78
2022/09/07 12:14:38;;;;;;;9.20;1.70;;;16.00;73.60;;;;;;5055187;28;20278;-81
2022/09/07 12:17:26;;;;;;;7.37;2.00;;;16.00;73.60;;;;;;5054885;28;20188;-78
2022/09/07 12:20:19;;;;;;;7.00;1.50;;;15.90;73.80;;;;;;5057239;28;20181;-82
2022/09/07 12:23:05;;;;;;;5.97;1.67;;;15.90;74.20;;;;;;5057081;28;20181;-81
2022/09/07 12:25:34;;;;;;;6.60;1.40;;;15.80;74.30;;;;;;5066917;28;20233;-82
2022/09/07 12:28:02;;;;;;;8.97;1.87;;;15.80;74.10;;;;;;5065954;28;20272;-80
2022/09/07 12:30:30;;;;;;;5.60;1.40;;;15.80;74.10;;;;;;5055001;28;20603;-81
2022/09/07 12:33:05;;;;;;;6.00;1.40;;;15.80;73.80;;;;;;5055014;28;20180;-82
2022/09/07 12:35:42;;;;;;;8.80;1.60;;;15.80;74.10;;;;;;5062591;28;20172;-83
2022/09/07 12:38:38;;;;;;;7.57;1.93;;;15.80;74.10;;;;;;5055124;28;20233;-81
2022/09/07 12:41:42;;;;;;;9.53;1.90;;;15.80;74.20;;;;;;5068431;28;20220;-83
2022/09/07 12:44:17;;;;;;;9.33;1.63;;;15.80;74.40;;;;;;5054531;28;20175;-83
2022/09/07 12:46:54;;;;;;;8.07;1.60;;;15.80;74.10;;;;;;5054740;28;20175;-81
2022/09/07 12:49:47;;;;;;;7.97;1.70;;;15.80;74.10;;;;;;5062810;28;20215;-78
2022/09/07 12:52:44;;;;;;;7.70;2.03;;;15.80;73.70;;;;;;5033282;28;20687;-82
2022/09/07 12:55:17;;;;;;;6.67;1.67;;;15.90;73.40;;;;;;5058721;28;20211;-80
2022/09/07 12:57:58;;;;;;;9.63;2.00;;;15.90;73.30;;;;;;5067919;28;20225;-79
2022/09/07 13:00:44;;;;;;;6.57;2.03;;;15.90;73.30;;;;;;5056366;28;20272;-80
2022/09/07 13:03:57;;;;;;;7.07;2.13;;;15.90;73.50;;;;;;5069635;28;20259;-77
2022/09/07 13:06:42;;;;;;;8.37;1.40;;;15.80;73.60;;;;;;5057631;28;20634;-80
2022/09/07 13:09:36;;;;;;;5.10;1.43;;;15.80;73.70;;;;;;5061643;28;20191;-74
2022/09/07 13:12:40;;;;;;;9.43;2.37;;;15.80;73.60;;;;;;5053889;28;20281;-76
2022/09/07 13:15:27;;;;;;;6.13;1.30;;;15.70;73.60;;;;;;5071385;28;20669;-75
2022/09/07 13:17:56;;;;;;;7.73;1.53;;;15.80;73.80;;;;;;5061334;28;20188;-79
2022/09/07 13:20:29;;;;;;;5.83;1.70;;;15.70;73.90;;;;;;5068466;28;20180;-76
2022/09/07 13:23:16;;;;;;;6.00;1.40;;;15.60;74.30;;;;;;5058416;28;20190;-80
2022/09/07 13:25:46;;;;;;;6.10;1.90;;;15.50;74.40;;;;;;5053639;28;20174;-82
2022/09/07 13:28:25;;;;;;;8.67;1.70;;;15.40;74.70;;;;;;5059646;28;20179;-82
2022/09/07 13:31:19;;;;;;;3.73;1.20;;;15.30;75.10;;;;;;5053523;28;20307;-82